Main page
METAR-TAF:

METAR-TAF

Airports :

Florianópolis, Santa Catarina, Brazil

Hercílio Luz International Airport

latitude: 27-40S, longitude: 048-33W, elevation: 5 m

Current weather observation

The report was made 35 minutes ago, at 14:00 UTC
Wind 7 kt from the North
Temperature 27°C
Humidity 66%
Pressure 1020 hPa
Visibility 10 km or more
no clouds below 1500 m and no cumulonimbus

METAR: SBFL 251400Z 36007KT CAVOK 27/20 Q1020

Time: 11:35 (14:35 UTC)

Forecast

The report was made 5 hours and 20 minutes ago, at 09:15 UTC
Forecast valid from 25 at 12 UTC to 26 at 12 UTC
Wind 5 kt from the North/Northwest
Visibility 10 km or more
no clouds below 1500 m and no cumulonimbus
Becoming
from 25 at 14 UTC to 25 at 16 UTC
Wind 10 kt from the North/Northeast
Visibility 10 km or more
Scattered clouds at a height of 2000 ft

TAF: SBFL 250915Z 2512/2612 34005KT CAVOK TX30/2517Z TN21/2608Z BECMG 2514/2516 03010KT 9999 SCT020 RMK PCO

Weather observations and forecasts of more than 4000 airports (METAR and TAF reports).

The available stations are represented by yellow and red dots on the map.

Hover mouse over dot to see the name of the station.

Then click to see weather observations and forecasts.

To change the map : click on the green buttons with a black cross to zoom in, on the green button with a dash to zoom out, or on the green arrows for adjacent maps.


METAR-TAF: